sensor_id;sensor_type;location;lat;lon;timestamp;P1;durP1;ratioP1;P2;durP2;ratioP2
40198;SDS011;25906;43.536;26.068;2023-04-07T00:01:41;11.50;;;7.20;;
40198;SDS011;25906;43.536;26.068;2023-04-07T00:04:27;15.52;;;8.88;;
40198;SDS011;25906;43.536;26.068;2023-04-07T00:07:12;21.15;;;10.48;;
40198;SDS011;25906;43.536;26.068;2023-04-07T00:09:58;18.20;;;9.65;;
40198;SDS011;25906;43.536;26.068;2023-04-07T00:12:43;20.95;;;10.50;;
40198;SDS011;25906;43.536;26.068;2023-04-07T00:15:29;22.85;;;10.77;;
40198;SDS011;25906;43.536;26.068;2023-04-07T00:18:14;22.30;;;9.90;;
40198;SDS011;25906;43.536;26.068;2023-04-07T00:21:00;30.42;;;13.40;;
40198;SDS011;25906;43.536;26.068;2023-04-07T00:23:45;16.33;;;9.63;;
40198;SDS011;25906;43.536;26.068;2023-04-07T00:26:31;24.55;;;10.50;;
40198;SDS011;25906;43.536;26.068;2023-04-07T00:29:17;16.75;;;8.73;;
40198;SDS011;25906;43.536;26.068;2023-04-07T00:32:02;16.38;;;8.80;;
40198;SDS011;25906;43.536;26.068;2023-04-07T00:34:47;22.17;;;10.20;;
40198;SDS011;25906;43.536;26.068;2023-04-07T00:37:33;29.90;;;13.27;;
40198;SDS011;25906;43.536;26.068;2023-04-07T00:40:18;26.77;;;14.35;;
40198;SDS011;25906;43.536;26.068;2023-04-07T00:43:04;22.75;;;13.02;;
40198;SDS011;25906;43.536;26.068;2023-04-07T00:45:49;19.70;;;9.90;;
40198;SDS011;25906;43.536;26.068;2023-04-07T00:48:35;27.08;;;14.23;;
40198;SDS011;25906;43.536;26.068;2023-04-07T00:51:21;16.50;;;9.73;;
40198;SDS011;25906;43.536;26.068;2023-04-07T00:54:06;21.05;;;11.23;;
40198;SDS011;25906;43.536;26.068;2023-04-07T00:56:53;27.67;;;13.57;;
40198;SDS011;25906;43.536;26.068;2023-04-07T00:59:38;24.98;;;12.38;;
40198;SDS011;25906;43.536;26.068;2023-04-07T01:11:23;22.50;;;11.15;;
40198;SDS011;25906;43.536;26.068;2023-04-07T01:14:14;17.23;;;9.52;;
40198;SDS011;25906;43.536;26.068;2023-04-07T01:17:02;18.35;;;9.57;;
40198;SDS011;25906;43.536;26.068;2023-04-07T01:19:58;17.80;;;8.38;;
40198;SDS011;25906;43.536;26.068;2023-04-07T01:22:56;14.95;;;8.63;;
40198;SDS011;25906;43.536;26.068;2023-04-07T01:25:53;20.45;;;10.20;;
40198;SDS011;25906;43.536;26.068;2023-04-07T01:31:48;26.02;;;12.55;;
40198;SDS011;25906;43.536;26.068;2023-04-07T01:34:34;22.75;;;11.65;;
40198;SDS011;25906;43.536;26.068;2023-04-07T01:37:22;17.15;;;8.95;;
40198;SDS011;25906;43.536;26.068;2023-04-07T01:40:10;15.00;;;9.23;;
40198;SDS011;25906;43.536;26.068;2023-04-07T01:42:56;14.65;;;8.38;;
40198;SDS011;25906;43.536;26.068;2023-04-07T01:45:43;13.95;;;8.68;;
40198;SDS011;25906;43.536;26.068;2023-04-07T01:48:29;12.35;;;8.20;;
40198;SDS011;25906;43.536;26.068;2023-04-07T01:51:15;17.60;;;8.20;;
40198;SDS011;25906;43.536;26.068;2023-04-07T01:54:02;15.68;;;8.75;;
40198;SDS011;25906;43.536;26.068;2023-04-07T01:56:48;15.13;;;9.25;;
40198;SDS011;25906;43.536;26.068;2023-04-07T01:59:34;15.60;;;8.93;;
40198;SDS011;25906;43.536;26.068;2023-04-07T02:02:20;15.95;;;8.43;;
40198;SDS011;25906;43.536;26.068;2023-04-07T02:08:03;22.08;;;9.15;;
40198;SDS011;25906;43.536;26.068;2023-04-07T02:10:50;25.15;;;11.52;;
40198;SDS011;25906;43.536;26.068;2023-04-07T02:13:36;19.52;;;11.10;;
40198;SDS011;25906;43.536;26.068;2023-04-07T02:16:23;37.47;;;15.85;;
40198;SDS011;25906;43.536;26.068;2023-04-07T02:19:09;26.15;;;12.60;;
40198;SDS011;25906;43.536;26.068;2023-04-07T02:21:55;32.08;;;16.92;;
40198;SDS011;25906;43.536;26.068;2023-04-07T02:24:41;24.05;;;12.10;;
40198;SDS011;25906;43.536;26.068;2023-04-07T02:27:27;22.42;;;11.43;;
40198;SDS011;25906;43.536;26.068;2023-04-07T02:30:12;23.27;;;11.18;;
40198;SDS011;25906;43.536;26.068;2023-04-07T02:35:43;29.15;;;14.18;;
40198;SDS011;25906;43.536;26.068;2023-04-07T02:38:28;27.35;;;12.05;;
40198;SDS011;25906;43.536;26.068;2023-04-07T02:41:14;17.30;;;10.70;;
40198;SDS011;25906;43.536;26.068;2023-04-07T02:44:00;15.20;;;10.55;;
40198;SDS011;25906;43.536;26.068;2023-04-07T02:46:45;17.42;;;10.02;;
40198;SDS011;25906;43.536;26.068;2023-04-07T02:49:31;20.65;;;11.18;;
40198;SDS011;25906;43.536;26.068;2023-04-07T02:52:16;17.15;;;11.18;;
40198;SDS011;25906;43.536;26.068;2023-04-07T02:55:02;21.98;;;10.73;;
40198;SDS011;25906;43.536;26.068;2023-04-07T02:57:47;16.75;;;9.77;;
40198;SDS011;25906;43.536;26.068;2023-04-07T03:03:18;22.23;;;12.02;;
40198;SDS011;25906;43.536;26.068;2023-04-07T03:06:04;20.40;;;12.13;;
40198;SDS011;25906;43.536;26.068;2023-04-07T03:08:50;34.35;;;15.27;;
40198;SDS011;25906;43.536;26.068;2023-04-07T03:11:35;35.28;;;16.73;;
40198;SDS011;25906;43.536;26.068;2023-04-07T03:17:06;29.63;;;12.95;;
40198;SDS011;25906;43.536;26.068;2023-04-07T03:19:52;27.02;;;13.02;;
40198;SDS011;25906;43.536;26.068;2023-04-07T03:22:37;33.50;;;16.42;;
40198;SDS011;25906;43.536;26.068;2023-04-07T03:25:24;23.65;;;13.35;;
40198;SDS011;25906;43.536;26.068;2023-04-07T03:28:10;23.75;;;12.40;;
40198;SDS011;25906;43.536;26.068;2023-04-07T03:30:56;24.48;;;12.52;;
40198;SDS011;25906;43.536;26.068;2023-04-07T03:33:41;28.08;;;12.70;;
40198;SDS011;25906;43.536;26.068;2023-04-07T03:36:26;22.58;;;11.95;;
40198;SDS011;25906;43.536;26.068;2023-04-07T03:39:12;25.17;;;12.40;;
40198;SDS011;25906;43.536;26.068;2023-04-07T03:41:57;22.48;;;12.63;;
40198;SDS011;25906;43.536;26.068;2023-04-07T03:44:43;23.88;;;11.73;;
40198;SDS011;25906;43.536;26.068;2023-04-07T03:47:28;20.83;;;12.43;;
40198;SDS011;25906;43.536;26.068;2023-04-07T03:50:13;23.55;;;11.63;;
40198;SDS011;25906;43.536;26.068;2023-04-07T03:52:59;22.02;;;11.52;;
40198;SDS011;25906;43.536;26.068;2023-04-07T03:55:45;23.83;;;10.68;;
40198;SDS011;25906;43.536;26.068;2023-04-07T03:58:30;22.25;;;11.43;;
40198;SDS011;25906;43.536;26.068;2023-04-07T04:01:15;18.77;;;11.07;;
40198;SDS011;25906;43.536;26.068;2023-04-07T04:04:01;23.23;;;11.50;;
40198;SDS011;25906;43.536;26.068;2023-04-07T04:06:46;28.33;;;13.23;;
40198;SDS011;25906;43.536;26.068;2023-04-07T04:09:32;33.83;;;15.20;;
40198;SDS011;25906;43.536;26.068;2023-04-07T04:12:17;25.90;;;13.00;;
40198;SDS011;25906;43.536;26.068;2023-04-07T04:15:03;29.80;;;12.75;;
40198;SDS011;25906;43.536;26.068;2023-04-07T04:17:48;21.83;;;11.93;;
40198;SDS011;25906;43.536;26.068;2023-04-07T04:20:34;19.92;;;10.35;;
40198;SDS011;25906;43.536;26.068;2023-04-07T04:23:19;15.40;;;9.27;;
40198;SDS011;25906;43.536;26.068;2023-04-07T04:26:05;20.17;;;10.50;;
40198;SDS011;25906;43.536;26.068;2023-04-07T04:28:50;20.80;;;11.05;;
40198;SDS011;25906;43.536;26.068;2023-04-07T04:31:37;18.17;;;10.73;;
40198;SDS011;25906;43.536;26.068;2023-04-07T04:34:22;21.30;;;10.73;;
40198;SDS011;25906;43.536;26.068;2023-04-07T04:37:07;25.48;;;11.00;;
40198;SDS011;25906;43.536;26.068;2023-04-07T04:39:53;14.95;;;9.32;;
40198;SDS011;25906;43.536;26.068;2023-04-07T04:42:38;21.00;;;10.45;;
40198;SDS011;25906;43.536;26.068;2023-04-07T04:45:24;16.70;;;9.30;;
40198;SDS011;25906;43.536;26.068;2023-04-07T04:48:09;16.02;;;10.10;;
40198;SDS011;25906;43.536;26.068;2023-04-07T04:50:55;13.50;;;8.50;;
40198;SDS011;25906;43.536;26.068;2023-04-07T04:53:40;14.18;;;8.75;;
40198;SDS011;25906;43.536;26.068;2023-04-07T04:56:26;15.73;;;9.20;;
40198;SDS011;25906;43.536;26.068;2023-04-07T04:59:12;18.05;;;9.10;;
40198;SDS011;25906;43.536;26.068;2023-04-07T05:01:57;13.07;;;8.55;;
40198;SDS011;25906;43.536;26.068;2023-04-07T05:04:43;12.90;;;8.25;;
40198;SDS011;25906;43.536;26.068;2023-04-07T05:07:28;14.85;;;8.55;;
40198;SDS011;25906;43.536;26.068;2023-04-07T05:10:13;17.52;;;9.73;;
40198;SDS011;25906;43.536;26.068;2023-04-07T05:12:59;17.38;;;9.70;;
40198;SDS011;25906;43.536;26.068;2023-04-07T05:15:45;14.65;;;8.82;;
40198;SDS011;25906;43.536;26.068;2023-04-07T05:18:30;22.02;;;10.02;;
40198;SDS011;25906;43.536;26.068;2023-04-07T05:21:16;16.65;;;9.70;;
40198;SDS011;25906;43.536;26.068;2023-04-07T05:24:04;16.30;;;8.65;;
40198;SDS011;25906;43.536;26.068;2023-04-07T05:26:49;16.50;;;9.57;;
40198;SDS011;25906;43.536;26.068;2023-04-07T05:29:35;15.75;;;8.95;;
40198;SDS011;25906;43.536;26.068;2023-04-07T05:32:20;15.40;;;8.35;;
40198;SDS011;25906;43.536;26.068;2023-04-07T05:35:06;13.30;;;8.77;;
40198;SDS011;25906;43.536;26.068;2023-04-07T05:37:51;14.05;;;8.63;;
40198;SDS011;25906;43.536;26.068;2023-04-07T05:40:37;16.40;;;8.85;;
40198;SDS011;25906;43.536;26.068;2023-04-07T05:43:23;15.55;;;8.95;;
40198;SDS011;25906;43.536;26.068;2023-04-07T05:46:08;13.00;;;8.48;;
40198;SDS011;25906;43.536;26.068;2023-04-07T05:48:54;19.15;;;9.38;;
40198;SDS011;25906;43.536;26.068;2023-04-07T05:51:39;16.52;;;9.02;;
40198;SDS011;25906;43.536;26.068;2023-04-07T05:54:28;17.17;;;8.73;;
40198;SDS011;25906;43.536;26.068;2023-04-07T05:57:14;14.38;;;8.27;;
40198;SDS011;25906;43.536;26.068;2023-04-07T05:59:59;17.48;;;8.68;;
40198;SDS011;25906;43.536;26.068;2023-04-07T06:02:45;16.85;;;9.13;;
40198;SDS011;25906;43.536;26.068;2023-04-07T06:05:30;16.17;;;9.60;;
40198;SDS011;25906;43.536;26.068;2023-04-07T06:08:16;16.05;;;9.80;;
40198;SDS011;25906;43.536;26.068;2023-04-07T06:11:01;13.57;;;8.13;;
40198;SDS011;25906;43.536;26.068;2023-04-07T06:13:46;18.85;;;10.60;;
40198;SDS011;25906;43.536;26.068;2023-04-07T06:16:32;17.08;;;9.57;;
40198;SDS011;25906;43.536;26.068;2023-04-07T06:19:17;15.52;;;8.57;;
40198;SDS011;25906;43.536;26.068;2023-04-07T06:22:03;15.73;;;8.45;;
40198;SDS011;25906;43.536;26.068;2023-04-07T06:24:48;20.08;;;9.73;;
40198;SDS011;25906;43.536;26.068;2023-04-07T06:27:34;17.88;;;9.13;;
40198;SDS011;25906;43.536;26.068;2023-04-07T06:30:20;20.27;;;8.32;;
40198;SDS011;25906;43.536;26.068;2023-04-07T06:33:05;14.07;;;8.15;;
40198;SDS011;25906;43.536;26.068;2023-04-07T06:35:50;14.73;;;7.88;;
40198;SDS011;25906;43.536;26.068;2023-04-07T06:41:22;15.55;;;7.95;;
40198;SDS011;25906;43.536;26.068;2023-04-07T06:44:11;17.38;;;9.30;;
40198;SDS011;25906;43.536;26.068;2023-04-07T06:46:56;15.25;;;8.50;;
40198;SDS011;25906;43.536;26.068;2023-04-07T06:49:42;17.55;;;8.77;;
40198;SDS011;25906;43.536;26.068;2023-04-07T06:52:27;17.35;;;8.32;;
40198;SDS011;25906;43.536;26.068;2023-04-07T06:57:58;18.67;;;8.75;;
40198;SDS011;25906;43.536;26.068;2023-04-07T07:00:44;18.30;;;8.20;;
40198;SDS011;25906;43.536;26.068;2023-04-07T07:03:29;14.27;;;9.00;;
40198;SDS011;25906;43.536;26.068;2023-04-07T07:06:15;17.58;;;9.15;;
40198;SDS011;25906;43.536;26.068;2023-04-07T07:09:01;12.82;;;8.10;;
40198;SDS011;25906;43.536;26.068;2023-04-07T07:11:47;11.50;;;8.00;;
40198;SDS011;25906;43.536;26.068;2023-04-07T07:14:32;16.85;;;8.55;;
40198;SDS011;25906;43.536;26.068;2023-04-07T07:17:17;15.60;;;9.38;;
40198;SDS011;25906;43.536;26.068;2023-04-07T07:20:03;18.88;;;9.00;;
40198;SDS011;25906;43.536;26.068;2023-04-07T07:22:49;14.32;;;8.77;;
40198;SDS011;25906;43.536;26.068;2023-04-07T07:25:35;18.38;;;8.80;;
40198;SDS011;25906;43.536;26.068;2023-04-07T07:28:20;18.58;;;8.82;;
40198;SDS011;25906;43.536;26.068;2023-04-07T07:31:10;17.35;;;8.77;;
40198;SDS011;25906;43.536;26.068;2023-04-07T07:33:57;15.65;;;8.40;;
40198;SDS011;25906;43.536;26.068;2023-04-07T07:36:42;20.58;;;9.27;;
40198;SDS011;25906;43.536;26.068;2023-04-07T07:39:28;17.88;;;9.43;;
40198;SDS011;25906;43.536;26.068;2023-04-07T07:44:59;18.25;;;8.43;;
40198;SDS011;25906;43.536;26.068;2023-04-07T07:47:44;13.07;;;8.43;;
40198;SDS011;25906;43.536;26.068;2023-04-07T07:50:30;13.32;;;8.82;;
40198;SDS011;25906;43.536;26.068;2023-04-07T07:53:15;21.48;;;9.30;;
40198;SDS011;25906;43.536;26.068;2023-04-07T07:56:01;17.52;;;9.85;;
40198;SDS011;25906;43.536;26.068;2023-04-07T07:58:46;14.90;;;9.75;;
40198;SDS011;25906;43.536;26.068;2023-04-07T08:01:32;18.52;;;9.57;;
40198;SDS011;25906;43.536;26.068;2023-04-07T08:04:17;15.45;;;9.70;;
40198;SDS011;25906;43.536;26.068;2023-04-07T08:07:03;19.60;;;9.65;;
40198;SDS011;25906;43.536;26.068;2023-04-07T08:09:48;17.83;;;9.23;;
40198;SDS011;25906;43.536;26.068;2023-04-07T08:12:34;14.18;;;9.25;;
40198;SDS011;25906;43.536;26.068;2023-04-07T08:18:05;14.27;;;9.77;;
40198;SDS011;25906;43.536;26.068;2023-04-07T08:23:36;15.35;;;9.23;;
40198;SDS011;25906;43.536;26.068;2023-04-07T08:26:22;14.65;;;10.15;;
40198;SDS011;25906;43.536;26.068;2023-04-07T08:29:07;15.23;;;9.60;;
40198;SDS011;25906;43.536;26.068;2023-04-07T08:31:52;19.80;;;9.80;;
40198;SDS011;25906;43.536;26.068;2023-04-07T08:34:38;13.98;;;9.32;;
40198;SDS011;25906;43.536;26.068;2023-04-07T08:37:23;16.50;;;9.43;;
40198;SDS011;25906;43.536;26.068;2023-04-07T08:40:09;22.52;;;12.45;;
40198;SDS011;25906;43.536;26.068;2023-04-07T08:45:41;18.80;;;11.57;;
40198;SDS011;25906;43.536;26.068;2023-04-07T08:48:28;20.98;;;11.07;;
40198;SDS011;25906;43.536;26.068;2023-04-07T08:51:28;15.75;;;9.30;;
40198;SDS011;25906;43.536;26.068;2023-04-07T08:54:16;20.08;;;9.57;;
40198;SDS011;25906;43.536;26.068;2023-04-07T08:57:06;16.38;;;9.50;;
40198;SDS011;25906;43.536;26.068;2023-04-07T08:59:52;13.77;;;8.93;;
40198;SDS011;25906;43.536;26.068;2023-04-07T09:05:24;13.82;;;8.48;;
40198;SDS011;25906;43.536;26.068;2023-04-07T09:08:10;14.30;;;8.60;;
40198;SDS011;25906;43.536;26.068;2023-04-07T09:10:56;14.55;;;8.77;;
40198;SDS011;25906;43.536;26.068;2023-04-07T09:13:42;12.50;;;7.15;;
40198;SDS011;25906;43.536;26.068;2023-04-07T09:16:27;10.93;;;7.63;;
40198;SDS011;25906;43.536;26.068;2023-04-07T09:19:14;14.55;;;7.75;;
40198;SDS011;25906;43.536;26.068;2023-04-07T09:22:00;14.48;;;7.82;;
40198;SDS011;25906;43.536;26.068;2023-04-07T09:24:45;12.60;;;7.68;;
40198;SDS011;25906;43.536;26.068;2023-04-07T09:27:31;13.60;;;7.00;;
40198;SDS011;25906;43.536;26.068;2023-04-07T09:33:02;12.65;;;8.32;;
40198;SDS011;25906;43.536;26.068;2023-04-07T09:35:51;10.90;;;7.30;;
40198;SDS011;25906;43.536;26.068;2023-04-07T09:38:42;16.25;;;7.88;;
40198;SDS011;25906;43.536;26.068;2023-04-07T09:41:28;11.88;;;7.18;;
40198;SDS011;25906;43.536;26.068;2023-04-07T09:44:13;16.70;;;9.73;;
40198;SDS011;25906;43.536;26.068;2023-04-07T09:46:59;30.75;;;16.02;;
40198;SDS011;25906;43.536;26.068;2023-04-07T09:49:49;33.55;;;16.10;;
40198;SDS011;25906;43.536;26.068;2023-04-07T09:52:48;26.83;;;13.80;;
40198;SDS011;25906;43.536;26.068;2023-04-07T09:55:38;28.85;;;14.88;;
40198;SDS011;25906;43.536;26.068;2023-04-07T09:58:25;36.22;;;16.67;;
40198;SDS011;25906;43.536;26.068;2023-04-07T10:01:11;23.05;;;11.50;;
40198;SDS011;25906;43.536;26.068;2023-04-07T10:03:58;15.18;;;8.18;;
40198;SDS011;25906;43.536;26.068;2023-04-07T10:06:44;13.27;;;8.90;;
40198;SDS011;25906;43.536;26.068;2023-04-07T10:09:30;11.35;;;7.60;;
40198;SDS011;25906;43.536;26.068;2023-04-07T10:12:16;24.00;;;11.13;;
40198;SDS011;25906;43.536;26.068;2023-04-07T10:15:02;18.00;;;9.07;;
40198;SDS011;25906;43.536;26.068;2023-04-07T10:20:33;17.10;;;10.27;;
40198;SDS011;25906;43.536;26.068;2023-04-07T10:23:39;13.20;;;8.07;;
40198;SDS011;25906;43.536;26.068;2023-04-07T10:26:33;12.93;;;7.50;;
40198;SDS011;25906;43.536;26.068;2023-04-07T10:29:21;14.15;;;8.43;;
40198;SDS011;25906;43.536;26.068;2023-04-07T10:32:08;12.95;;;7.72;;
40198;SDS011;25906;43.536;26.068;2023-04-07T10:34:55;11.13;;;6.78;;
40198;SDS011;25906;43.536;26.068;2023-04-07T10:40:52;13.32;;;8.38;;
40198;SDS011;25906;43.536;26.068;2023-04-07T10:43:38;15.27;;;7.80;;
40198;SDS011;25906;43.536;26.068;2023-04-07T10:46:35;22.23;;;13.23;;
40198;SDS011;25906;43.536;26.068;2023-04-07T10:49:34;10.65;;;6.97;;
40198;SDS011;25906;43.536;26.068;2023-04-07T10:52:23;13.45;;;7.70;;
40198;SDS011;25906;43.536;26.068;2023-04-07T11:01:15;12.77;;;7.18;;
40198;SDS011;25906;43.536;26.068;2023-04-07T11:04:02;18.17;;;7.45;;
40198;SDS011;25906;43.536;26.068;2023-04-07T11:06:49;15.40;;;7.57;;
40198;SDS011;25906;43.536;26.068;2023-04-07T11:09:34;13.00;;;7.47;;
40198;SDS011;25906;43.536;26.068;2023-04-07T11:12:23;11.73;;;7.75;;
40198;SDS011;25906;43.536;26.068;2023-04-07T11:15:19;11.10;;;7.05;;
40198;SDS011;25906;43.536;26.068;2023-04-07T11:18:13;10.13;;;6.90;;
40198;SDS011;25906;43.536;26.068;2023-04-07T11:21:00;16.10;;;7.40;;
40198;SDS011;25906;43.536;26.068;2023-04-07T11:23:47;17.95;;;7.90;;
40198;SDS011;25906;43.536;26.068;2023-04-07T11:26:36;11.23;;;7.07;;
40198;SDS011;25906;43.536;26.068;2023-04-07T11:29:27;13.05;;;7.75;;
40198;SDS011;25906;43.536;26.068;2023-04-07T11:32:13;10.55;;;7.22;;
40198;SDS011;25906;43.536;26.068;2023-04-07T11:34:58;11.50;;;6.97;;
40198;SDS011;25906;43.536;26.068;2023-04-07T11:37:44;10.00;;;6.85;;
40198;SDS011;25906;43.536;26.068;2023-04-07T11:40:30;11.57;;;7.25;;
40198;SDS011;25906;43.536;26.068;2023-04-07T11:43:25;8.35;;;6.43;;
40198;SDS011;25906;43.536;26.068;2023-04-07T11:46:13;14.02;;;7.55;;
40198;SDS011;25906;43.536;26.068;2023-04-07T11:49:10;11.25;;;7.03;;
40198;SDS011;25906;43.536;26.068;2023-04-07T11:54:42;9.73;;;6.68;;
40198;SDS011;25906;43.536;26.068;2023-04-07T11:57:33;9.80;;;6.70;;
40198;SDS011;25906;43.536;26.068;2023-04-07T12:00:19;11.27;;;7.32;;
40198;SDS011;25906;43.536;26.068;2023-04-07T12:03:08;11.60;;;7.50;;
40198;SDS011;25906;43.536;26.068;2023-04-07T12:05:55;12.00;;;7.50;;
40198;SDS011;25906;43.536;26.068;2023-04-07T12:08:42;11.20;;;6.55;;
40198;SDS011;25906;43.536;26.068;2023-04-07T12:11:28;8.93;;;6.75;;
40198;SDS011;25906;43.536;26.068;2023-04-07T12:14:14;13.15;;;7.28;;
40198;SDS011;25906;43.536;26.068;2023-04-07T12:16:59;12.10;;;7.45;;
40198;SDS011;25906;43.536;26.068;2023-04-07T12:19:47;12.75;;;7.38;;
40198;SDS011;25906;43.536;26.068;2023-04-07T12:22:32;8.30;;;6.57;;
40198;SDS011;25906;43.536;26.068;2023-04-07T12:25:18;9.43;;;6.97;;
40198;SDS011;25906;43.536;26.068;2023-04-07T12:28:03;11.32;;;8.00;;
40198;SDS011;25906;43.536;26.068;2023-04-07T12:30:49;14.93;;;7.90;;
40198;SDS011;25906;43.536;26.068;2023-04-07T12:33:34;13.95;;;7.70;;
40198;SDS011;25906;43.536;26.068;2023-04-07T12:36:19;14.32;;;7.45;;
40198;SDS011;25906;43.536;26.068;2023-04-07T12:39:05;13.20;;;7.05;;
40198;SDS011;25906;43.536;26.068;2023-04-07T12:41:50;14.30;;;7.40;;
40198;SDS011;25906;43.536;26.068;2023-04-07T12:44:37;11.77;;;7.55;;
40198;SDS011;25906;43.536;26.068;2023-04-07T12:47:22;11.60;;;7.32;;
40198;SDS011;25906;43.536;26.068;2023-04-07T12:50:08;12.10;;;7.38;;
40198;SDS011;25906;43.536;26.068;2023-04-07T12:52:53;10.35;;;7.30;;
40198;SDS011;25906;43.536;26.068;2023-04-07T12:55:39;11.20;;;6.68;;
40198;SDS011;25906;43.536;26.068;2023-04-07T12:58:24;12.82;;;6.95;;
40198;SDS011;25906;43.536;26.068;2023-04-07T13:03:56;12.00;;;6.30;;
40198;SDS011;25906;43.536;26.068;2023-04-07T13:06:41;11.15;;;6.60;;
40198;SDS011;25906;43.536;26.068;2023-04-07T13:09:27;15.93;;;7.82;;
40198;SDS011;25906;43.536;26.068;2023-04-07T13:12:13;17.98;;;9.32;;
40198;SDS011;25906;43.536;26.068;2023-04-07T13:14:58;9.38;;;7.00;;
40198;SDS011;25906;43.536;26.068;2023-04-07T13:17:43;14.32;;;6.55;;
40198;SDS011;25906;43.536;26.068;2023-04-07T13:20:30;12.55;;;6.75;;
40198;SDS011;25906;43.536;26.068;2023-04-07T13:23:15;9.25;;;6.30;;
40198;SDS011;25906;43.536;26.068;2023-04-07T13:26:01;11.07;;;6.90;;
40198;SDS011;25906;43.536;26.068;2023-04-07T13:28:47;12.98;;;6.60;;
40198;SDS011;25906;43.536;26.068;2023-04-07T13:31:32;14.63;;;6.60;;
40198;SDS011;25906;43.536;26.068;2023-04-07T13:34:18;13.73;;;6.88;;
40198;SDS011;25906;43.536;26.068;2023-04-07T13:37:03;10.63;;;6.40;;
40198;SDS011;25906;43.536;26.068;2023-04-07T13:39:50;9.50;;;7.07;;
40198;SDS011;25906;43.536;26.068;2023-04-07T13:42:36;15.55;;;7.95;;
40198;SDS011;25906;43.536;26.068;2023-04-07T13:45:22;11.50;;;7.82;;
40198;SDS011;25906;43.536;26.068;2023-04-07T13:48:07;17.55;;;8.05;;
40198;SDS011;25906;43.536;26.068;2023-04-07T13:50:53;13.50;;;7.25;;
40198;SDS011;25906;43.536;26.068;2023-04-07T13:53:38;14.75;;;8.40;;
40198;SDS011;25906;43.536;26.068;2023-04-07T13:56:24;12.20;;;8.18;;
40198;SDS011;25906;43.536;26.068;2023-04-07T13:59:09;12.98;;;7.80;;
40198;SDS011;25906;43.536;26.068;2023-04-07T14:01:55;13.48;;;7.55;;
40198;SDS011;25906;43.536;26.068;2023-04-07T14:04:40;13.68;;;8.90;;
40198;SDS011;25906;43.536;26.068;2023-04-07T14:07:25;12.80;;;8.35;;
40198;SDS011;25906;43.536;26.068;2023-04-07T14:10:11;17.60;;;9.27;;
40198;SDS011;25906;43.536;26.068;2023-04-07T14:12:56;16.35;;;9.65;;
40198;SDS011;25906;43.536;26.068;2023-04-07T14:15:42;15.52;;;9.82;;
40198;SDS011;25906;43.536;26.068;2023-04-07T14:18:27;20.13;;;9.57;;
40198;SDS011;25906;43.536;26.068;2023-04-07T14:21:12;14.43;;;9.35;;
40198;SDS011;25906;43.536;26.068;2023-04-07T14:23:58;14.45;;;9.18;;
40198;SDS011;25906;43.536;26.068;2023-04-07T14:26:44;17.77;;;10.45;;
40198;SDS011;25906;43.536;26.068;2023-04-07T14:29:30;19.60;;;10.10;;
40198;SDS011;25906;43.536;26.068;2023-04-07T14:32:16;14.13;;;9.10;;
40198;SDS011;25906;43.536;26.068;2023-04-07T14:35:01;16.02;;;9.27;;
40198;SDS011;25906;43.536;26.068;2023-04-07T14:37:47;13.65;;;9.55;;
40198;SDS011;25906;43.536;26.068;2023-04-07T14:40:32;13.13;;;9.13;;
40198;SDS011;25906;43.536;26.068;2023-04-07T14:43:17;12.00;;;8.50;;
40198;SDS011;25906;43.536;26.068;2023-04-07T14:46:03;12.38;;;8.23;;
40198;SDS011;25906;43.536;26.068;2023-04-07T14:48:48;11.55;;;8.50;;
40198;SDS011;25906;43.536;26.068;2023-04-07T14:51:37;12.43;;;8.82;;
40198;SDS011;25906;43.536;26.068;2023-04-07T14:54:23;12.95;;;8.60;;
40198;SDS011;25906;43.536;26.068;2023-04-07T14:57:08;14.20;;;8.85;;
40198;SDS011;25906;43.536;26.068;2023-04-07T14:59:55;11.35;;;7.95;;
40198;SDS011;25906;43.536;26.068;2023-04-07T15:02:41;12.35;;;8.18;;
40198;SDS011;25906;43.536;26.068;2023-04-07T15:05:27;12.45;;;8.82;;
40198;SDS011;25906;43.536;26.068;2023-04-07T15:08:13;11.25;;;8.00;;
40198;SDS011;25906;43.536;26.068;2023-04-07T15:10:59;12.90;;;9.23;;
40198;SDS011;25906;43.536;26.068;2023-04-07T15:13:44;14.13;;;9.23;;
40198;SDS011;25906;43.536;26.068;2023-04-07T15:16:30;13.05;;;8.52;;
40198;SDS011;25906;43.536;26.068;2023-04-07T15:19:15;17.85;;;9.10;;
40198;SDS011;25906;43.536;26.068;2023-04-07T15:22:01;13.93;;;7.85;;
40198;SDS011;25906;43.536;26.068;2023-04-07T15:24:46;12.20;;;8.82;;
40198;SDS011;25906;43.536;26.068;2023-04-07T15:27:31;12.32;;;8.70;;
40198;SDS011;25906;43.536;26.068;2023-04-07T15:30:17;12.98;;;8.75;;
40198;SDS011;25906;43.536;26.068;2023-04-07T15:33:02;11.85;;;8.32;;
40198;SDS011;25906;43.536;26.068;2023-04-07T15:35:48;17.52;;;8.77;;
40198;SDS011;25906;43.536;26.068;2023-04-07T15:38:34;14.95;;;9.10;;
40198;SDS011;25906;43.536;26.068;2023-04-07T15:41:20;13.27;;;9.02;;
40198;SDS011;25906;43.536;26.068;2023-04-07T15:44:07;14.25;;;9.25;;
40198;SDS011;25906;43.536;26.068;2023-04-07T15:46:52;10.00;;;6.47;;
40198;SDS011;25906;43.536;26.068;2023-04-07T15:49:38;13.45;;;8.45;;
40198;SDS011;25906;43.536;26.068;2023-04-07T15:52:23;13.68;;;8.77;;
40198;SDS011;25906;43.536;26.068;2023-04-07T15:55:09;13.45;;;8.73;;
40198;SDS011;25906;43.536;26.068;2023-04-07T15:57:54;13.90;;;9.15;;
40198;SDS011;25906;43.536;26.068;2023-04-07T16:00:40;14.32;;;8.95;;
40198;SDS011;25906;43.536;26.068;2023-04-07T16:03:25;14.90;;;9.63;;
40198;SDS011;25906;43.536;26.068;2023-04-07T16:08:57;13.90;;;10.00;;
40198;SDS011;25906;43.536;26.068;2023-04-07T16:11:42;19.15;;;9.75;;
40198;SDS011;25906;43.536;26.068;2023-04-07T16:14:28;14.65;;;10.10;;
40198;SDS011;25906;43.536;26.068;2023-04-07T16:17:15;17.45;;;9.75;;
40198;SDS011;25906;43.536;26.068;2023-04-07T16:20:00;14.63;;;9.75;;
40198;SDS011;25906;43.536;26.068;2023-04-07T16:22:46;16.27;;;10.70;;
40198;SDS011;25906;43.536;26.068;2023-04-07T16:25:32;15.88;;;10.38;;
40198;SDS011;25906;43.536;26.068;2023-04-07T16:28:17;14.13;;;9.55;;
40198;SDS011;25906;43.536;26.068;2023-04-07T16:31:02;15.35;;;9.65;;
40198;SDS011;25906;43.536;26.068;2023-04-07T16:33:52;16.83;;;10.07;;
40198;SDS011;25906;43.536;26.068;2023-04-07T16:36:38;15.00;;;10.02;;
40198;SDS011;25906;43.536;26.068;2023-04-07T16:39:23;16.90;;;10.80;;
40198;SDS011;25906;43.536;26.068;2023-04-07T16:42:09;15.45;;;10.35;;
40198;SDS011;25906;43.536;26.068;2023-04-07T16:44:54;17.65;;;10.77;;
40198;SDS011;25906;43.536;26.068;2023-04-07T16:47:45;18.83;;;10.95;;
40198;SDS011;25906;43.536;26.068;2023-04-07T16:50:30;17.30;;;10.48;;
40198;SDS011;25906;43.536;26.068;2023-04-07T16:53:17;20.65;;;11.52;;
40198;SDS011;25906;43.536;26.068;2023-04-07T16:56:03;19.70;;;11.60;;
40198;SDS011;25906;43.536;26.068;2023-04-07T16:58:48;19.08;;;11.30;;
40198;SDS011;25906;43.536;26.068;2023-04-07T17:01:34;19.13;;;12.13;;
40198;SDS011;25906;43.536;26.068;2023-04-07T17:04:20;17.40;;;11.45;;
40198;SDS011;25906;43.536;26.068;2023-04-07T17:07:05;20.95;;;12.32;;
40198;SDS011;25906;43.536;26.068;2023-04-07T17:09:51;18.50;;;11.93;;
40198;SDS011;25906;43.536;26.068;2023-04-07T17:12:36;22.55;;;13.40;;
40198;SDS011;25906;43.536;26.068;2023-04-07T17:15:22;22.17;;;13.40;;